Jan — CQDL — position and weather

sailwx.info

Track history (hours):
 
Tides and Currents Weather Stations Pressure Air Temp Water Temp Dewpoint Dewpoint Depression Visibility Wind Speed Wind Dir Waves Ship Positions

Jan

Last reported at 2017-Dec-03 08:10 UTC. Time now 2017-Dec-18 01:28 UTC.
Position N 15°23' W 061°46'.
Warning: this ship's position is 14 days out of date.

Length 161 m; draft 7.2 m.

Type: Ship (hazmat cat A). MMSI: 255805788.

Date/timePositionNaut miles runAvg speedWind from/ knotsBaromVisibWave heightAir tempDewpointWater temp
2017-Dec-03 08:10N 15°23' W 061°46'416.3
2017-Dec-03 07:55N 15°22' W 061°42'716.0
2017-Dec-03 07:30N 15°20' W 061°35'  
2017-Nov-30 14:42N 14°43' W 061°26'412.0
2017-Nov-30 14:24N 14°40' W 061°24'512.2
2017-Nov-30 14:00N 14°35' W 061°23'1512.5
2017-Nov-30 12:46N 14°21' W 061°16'512.4
2017-Nov-30 12:24N 14°17' W 061°13'511.8
2017-Nov-30 12:00N 14°13' W 061°11'711.4
2017-Nov-30 11:25N 14°08' W 061°07'511.5
2017-Nov-30 10:59N 14°04' W 061°04'4 0.3
2017-Nov-29 23:50N 14°07' W 061°03'515.4
2017-Nov-29 23:31N 14°12' W 061°00'714.6
2017-Nov-29 23:00N 14°13' W 060°53'816.5
2017-Nov-29 22:30N 14°08' W 060°46'1 0.0
2017-Nov-28 06:08N 14°07' W 060°45'3 6.8
2017-Nov-28 05:41N 14°09' W 060°47'1 6.6
2017-Nov-28 05:30N 14°10' W 060°48'6 6.4
2017-Nov-28 04:30N 14°14' W 060°53'3 6.1
2017-Nov-28 04:00N 14°16' W 060°55'3 5.9
2017-Nov-28 03:30N 14°18' W 060°58'3 5.8
2017-Nov-28 03:00N 14°20' W 061°00'3 5.9
2017-Nov-28 02:30N 14°21' W 061°03'3 6.0
2017-Nov-28 02:00N 14°23' W 061°05'3 6.3
2017-Nov-28 01:30N 14°25' W 061°08'4 7.1
2017-Nov-28 01:00N 14°28' W 061°09'7 7.2
2017-Nov-27 23:58N 14°35' W 061°06'3 6.3
2017-Nov-27 23:31N 14°36' W 061°03'0 0.2
2017-Nov-27 23:00N 14°36' W 061°03'0 0.0
2017-Nov-27 22:30N 14°36' W 061°03'0 0.0
2017-Nov-27 22:00N 14°36' W 061°03'0 0.0
2017-Nov-27 21:30N 14°36' W 061°03'0 0.0
2017-Nov-27 21:00N 14°36' W 061°03'0 0.0
2017-Nov-27 20:30N 14°36' W 061°03'0 0.0
2017-Nov-27 20:00N 14°36' W 061°03'0 0.0
2017-Nov-27 19:30N 14°36' W 061°03'0 0.0
2017-Nov-27 19:00N 14°36' W 061°03'0 0.0
2017-Nov-27 18:30N 14°36' W 061°03'0 0.0
2017-Nov-27 18:00N 14°36' W 061°03'2 4.3
2017-Nov-27 17:31N 14°35' W 061°05'1 2.9
2017-Nov-27 16:59N 14°35' W 061°07'5 9.3
2017-Nov-27 16:30N 14°31' W 061°10'510.5
2017-Nov-27 16:01N 14°28' W 061°13'5 9.9
2017-Nov-27 15:30N 14°23' W 061°16'510.4
2017-Nov-27 15:00N 14°19' W 061°18'  
Track history (hours):
 
Tides and Currents Weather Stations Pressure Air Temp Water Temp Dewpoint Dewpoint Depression Visibility Wind Speed Wind Dir Waves Ship Positions

Jan

Last reported at 2017-Dec-03 08:10 UTC. Time now 2017-Dec-18 01:28 UTC.
Position N 15°23' W 061°46'.
Warning: this ship's position is 14 days out of date.

Length 161 m; draft 7.2 m.

Type: Ship (hazmat cat A). MMSI: 255805788.

Date/timePositionNaut miles runAvg speedWind from/ knotsBaromVisibWave heightAir tempDewpointWater temp
2017-Dec-03 08:10N 15°23' W 061°46'416.3
2017-Dec-03 07:55N 15°22' W 061°42'716.0
2017-Dec-03 07:30N 15°20' W 061°35'  
2017-Nov-30 14:42N 14°43' W 061°26'412.0
2017-Nov-30 14:24N 14°40' W 061°24'512.2
2017-Nov-30 14:00N 14°35' W 061°23'1512.5
2017-Nov-30 12:46N 14°21' W 061°16'512.4
2017-Nov-30 12:24N 14°17' W 061°13'511.8
2017-Nov-30 12:00N 14°13' W 061°11'711.4
2017-Nov-30 11:25N 14°08' W 061°07'511.5
2017-Nov-30 10:59N 14°04' W 061°04'4 0.3
2017-Nov-29 23:50N 14°07' W 061°03'515.4
2017-Nov-29 23:31N 14°12' W 061°00'714.6
2017-Nov-29 23:00N 14°13' W 060°53'816.5
2017-Nov-29 22:30N 14°08' W 060°46'1 0.0
2017-Nov-28 06:08N 14°07' W 060°45'3 6.8
2017-Nov-28 05:41N 14°09' W 060°47'1 6.6
2017-Nov-28 05:30N 14°10' W 060°48'6 6.4
2017-Nov-28 04:30N 14°14' W 060°53'3 6.1
2017-Nov-28 04:00N 14°16' W 060°55'3 5.9
2017-Nov-28 03:30N 14°18' W 060°58'3 5.8
2017-Nov-28 03:00N 14°20' W 061°00'3 5.9
2017-Nov-28 02:30N 14°21' W 061°03'3 6.0
2017-Nov-28 02:00N 14°23' W 061°05'3 6.3
2017-Nov-28 01:30N 14°25' W 061°08'4 7.1
2017-Nov-28 01:00N 14°28' W 061°09'7 7.2
2017-Nov-27 23:58N 14°35' W 061°06'3 6.3
2017-Nov-27 23:31N 14°36' W 061°03'0 0.2
2017-Nov-27 23:00N 14°36' W 061°03'0 0.0
2017-Nov-27 22:30N 14°36' W 061°03'0 0.0
2017-Nov-27 22:00N 14°36' W 061°03'0 0.0
2017-Nov-27 21:30N 14°36' W 061°03'0 0.0
2017-Nov-27 21:00N 14°36' W 061°03'0 0.0
2017-Nov-27 20:30N 14°36' W 061°03'0 0.0
2017-Nov-27 20:00N 14°36' W 061°03'0 0.0
2017-Nov-27 19:30N 14°36' W 061°03'0 0.0
2017-Nov-27 19:00N 14°36' W 061°03'0 0.0
2017-Nov-27 18:30N 14°36' W 061°03'0 0.0
2017-Nov-27 18:00N 14°36' W 061°03'2 4.3
2017-Nov-27 17:31N 14°35' W 061°05'1 2.9
2017-Nov-27 16:59N 14°35' W 061°07'5 9.3
2017-Nov-27 16:30N 14°31' W 061°10'510.5
2017-Nov-27 16:01N 14°28' W 061°13'5 9.9
2017-Nov-27 15:30N 14°23' W 061°16'510.4
2017-Nov-27 15:00N 14°19' W 061°18'  

Dump ship's entire track history